< < Back
Terminal Aerodrome Forecast


Current Version              Previous Versions:   1  2  3  4  5  6  7  8  9  

Terminal Aerodrome Forecast

202
FTUS42 KGSP 032335
TAFAND
TAF
KAND 032335Z 0400/0424 26011KT P6SM SCT060
     FM040300 28006KT P6SM FEW060
     FM041000 00000KT P6SM FEW060
     FM041400 27007KT P6SM FEW060
     FM041700 27012G20KT P6SM SCT060=

Latest METAR

955
SAUS70 KWBC 032300 RRB
MTRAND
METAR KAND 032256Z AUTO 25013KT 10SM CLR 25/11 A2978 RMK AO2 SLP074
T02500111


USA.gov is the U.S. government's official web portal to all federal, state and local government web resources and services.